Terminal Aerodrome Forecast
Issued by NWS Louisville, KY

Home | Current Version | Previous Version | Text Only | Print | Product List | Glossary On
Versions: 1 2 3 4 5 6 7 8 9 10 11 12 13 14 15
000
FTUS43 KLMK 072300
TAFSDF
TAF
KSDF 072321Z 0800/0906 23008KT 6SM -SHRA BKN035
      TEMPO 0800/0803 4SM RA BR BKN025
     FM080300 25006KT P6SM VCSH SCT025 BKN035
     FM080900 22007KT P6SM BKN023
     FM081200 22008KT 5SM -SHRA BR BKN015
     FM081800 21010KT P6SM SCT025 BKN150=

USA.gov is the U.S. government's official web portal to all federal, state and local government web resources and services.